ADDS METAR Data INFO
IDs: Format: Raw Decoded Include TAF

Data at: 0356 UTC 20 Nov 2017

METAR for:K4I3 (Mount Vernon/Knox Cn, OH, US)
Text:K4I3 200336Z AUTO 26009KT 220V280 10SM OVC038 M01/M04 A3008 RMK AO2
Temperature: -1.0°C ( 30°F)
Dewpoint: -4.0°C ( 25°F) [RH = 80%]
Pressure (altimeter):30.08 inches Hg (1018.7 mb)
Winds:from the W (260 degrees) at 10 MPH (9 knots; 4.6 m/s)
Visibility:10 or more sm (16+ km)
Ceiling:3800 feet AGL
Clouds: overcast cloud deck at 3800 feet AGL
QC Flag:automated observation with no human augmentation